sensor_id;sensor_type;location;lat;lon;timestamp;temperature;humidity
4596;DHT22;2310;49.978;8.742;2022-08-25T00:00:53;22.20;99.90
4596;DHT22;2310;49.978;8.742;2022-08-25T00:04:54;22.20;99.90
4596;DHT22;2310;49.978;8.742;2022-08-25T00:08:56;22.20;99.90
4596;DHT22;2310;49.978;8.742;2022-08-25T00:13:00;22.30;99.90
4596;DHT22;2310;49.978;8.742;2022-08-25T00:17:03;22.40;99.90
4596;DHT22;2310;49.978;8.742;2022-08-25T00:21:05;22.50;99.10
4596;DHT22;2310;49.978;8.742;2022-08-25T00:25:07;22.30;99.60
4596;DHT22;2310;49.978;8.742;2022-08-25T00:29:10;22.20;99.90
4596;DHT22;2310;49.978;8.742;2022-08-25T00:33:11;22.20;99.90
4596;DHT22;2310;49.978;8.742;2022-08-25T00:37:12;22.20;99.90
4596;DHT22;2310;49.978;8.742;2022-08-25T00:41:20;22.20;99.90
4596;DHT22;2310;49.978;8.742;2022-08-25T00:45:21;22.20;99.90
4596;DHT22;2310;49.978;8.742;2022-08-25T00:49:26;22.20;99.90
4596;DHT22;2310;49.978;8.742;2022-08-25T00:53:29;22.40;99.90
4596;DHT22;2310;49.978;8.742;2022-08-25T00:57:47;22.40;99.90
4596;DHT22;2310;49.978;8.742;2022-08-25T01:01:49;22.40;99.90
4596;DHT22;2310;49.978;8.742;2022-08-25T01:05:51;22.50;99.90
4596;DHT22;2310;49.978;8.742;2022-08-25T01:09:53;22.60;99.90
4596;DHT22;2310;49.978;8.742;2022-08-25T01:13:56;22.50;99.90
4596;DHT22;2310;49.978;8.742;2022-08-25T01:17:57;22.50;99.90
4596;DHT22;2310;49.978;8.742;2022-08-25T01:22:00;22.50;99.90
4596;DHT22;2310;49.978;8.742;2022-08-25T01:26:09;22.50;99.90
4596;DHT22;2310;49.978;8.742;2022-08-25T01:30:10;22.40;99.90
4596;DHT22;2310;49.978;8.742;2022-08-25T01:34:13;22.40;99.90
4596;DHT22;2310;49.978;8.742;2022-08-25T01:38:15;22.30;99.90
4596;DHT22;2310;49.978;8.742;2022-08-25T01:42:23;22.30;99.90
4596;DHT22;2310;49.978;8.742;2022-08-25T01:46:25;22.20;99.90
4596;DHT22;2310;49.978;8.742;2022-08-25T01:50:27;22.20;99.90
4596;DHT22;2310;49.978;8.742;2022-08-25T01:54:28;22.20;99.90
4596;DHT22;2310;49.978;8.742;2022-08-25T01:58:32;22.10;99.90
4596;DHT22;2310;49.978;8.742;2022-08-25T02:02:34;22.00;99.90
4596;DHT22;2310;49.978;8.742;2022-08-25T02:06:37;22.10;99.90
4596;DHT22;2310;49.978;8.742;2022-08-25T02:10:40;22.00;99.90
4596;DHT22;2310;49.978;8.742;2022-08-25T02:14:42;22.00;99.90
4596;DHT22;2310;49.978;8.742;2022-08-25T02:18:43;22.00;99.90
4596;DHT22;2310;49.978;8.742;2022-08-25T02:22:46;22.00;99.90
4596;DHT22;2310;49.978;8.742;2022-08-25T02:26:49;22.00;99.90
4596;DHT22;2310;49.978;8.742;2022-08-25T02:30:51;22.00;99.90
4596;DHT22;2310;49.978;8.742;2022-08-25T02:34:54;22.00;99.90
4596;DHT22;2310;49.978;8.742;2022-08-25T02:38:56;22.00;99.90
4596;DHT22;2310;49.978;8.742;2022-08-25T02:42:58;21.80;99.90
4596;DHT22;2310;49.978;8.742;2022-08-25T02:46:59;21.70;99.90
4596;DHT22;2310;49.978;8.742;2022-08-25T02:51:00;21.60;99.90
4596;DHT22;2310;49.978;8.742;2022-08-25T02:55:04;21.60;99.90
4596;DHT22;2310;49.978;8.742;2022-08-25T02:59:06;21.50;99.90
4596;DHT22;2310;49.978;8.742;2022-08-25T03:03:07;21.60;99.90
4596;DHT22;2310;49.978;8.742;2022-08-25T03:07:10;21.60;99.90
4596;DHT22;2310;49.978;8.742;2022-08-25T03:11:13;21.50;99.90
4596;DHT22;2310;49.978;8.742;2022-08-25T03:15:15;21.40;99.90
4596;DHT22;2310;49.978;8.742;2022-08-25T03:19:17;21.40;99.90
4596;DHT22;2310;49.978;8.742;2022-08-25T03:23:19;21.40;99.90
4596;DHT22;2310;49.978;8.742;2022-08-25T03:27:20;21.40;99.90
4596;DHT22;2310;49.978;8.742;2022-08-25T03:31:22;21.40;99.90
4596;DHT22;2310;49.978;8.742;2022-08-25T03:35:23;21.50;99.90
4596;DHT22;2310;49.978;8.742;2022-08-25T03:39:26;21.50;99.90
4596;DHT22;2310;49.978;8.742;2022-08-25T03:43:27;21.60;99.90
4596;DHT22;2310;49.978;8.742;2022-08-25T03:47:28;21.70;99.90
4596;DHT22;2310;49.978;8.742;2022-08-25T03:51:36;21.70;99.90
4596;DHT22;2310;49.978;8.742;2022-08-25T03:55:39;21.80;99.90
4596;DHT22;2310;49.978;8.742;2022-08-25T03:59:40;21.70;99.90
4596;DHT22;2310;49.978;8.742;2022-08-25T04:03:42;21.70;99.90
4596;DHT22;2310;49.978;8.742;2022-08-25T04:07:43;21.60;99.90
4596;DHT22;2310;49.978;8.742;2022-08-25T04:11:44;21.50;99.90
4596;DHT22;2310;49.978;8.742;2022-08-25T04:15:46;21.50;99.90
4596;DHT22;2310;49.978;8.742;2022-08-25T04:19:47;21.50;99.90
4596;DHT22;2310;49.978;8.742;2022-08-25T04:23:49;21.50;99.90
4596;DHT22;2310;49.978;8.742;2022-08-25T04:27:50;21.50;99.90
4596;DHT22;2310;49.978;8.742;2022-08-25T04:31:53;21.50;99.90
4596;DHT22;2310;49.978;8.742;2022-08-25T04:35:54;21.50;99.90
4596;DHT22;2310;49.978;8.742;2022-08-25T04:39:56;21.50;99.90
4596;DHT22;2310;49.978;8.742;2022-08-25T04:43:59;21.50;99.90
4596;DHT22;2310;49.978;8.742;2022-08-25T04:48:00;21.40;99.90
4596;DHT22;2310;49.978;8.742;2022-08-25T04:52:02;21.30;99.90
4596;DHT22;2310;49.978;8.742;2022-08-25T04:56:06;21.50;99.90
4596;DHT22;2310;49.978;8.742;2022-08-25T05:00:09;22.00;99.90
4596;DHT22;2310;49.978;8.742;2022-08-25T05:04:12;22.40;99.90
4596;DHT22;2310;49.978;8.742;2022-08-25T05:08:16;22.80;99.90
4596;DHT22;2310;49.978;8.742;2022-08-25T05:12:17;22.90;99.90
4596;DHT22;2310;49.978;8.742;2022-08-25T05:16:21;22.70;99.90
4596;DHT22;2310;49.978;8.742;2022-08-25T05:20:23;22.50;99.90
4596;DHT22;2310;49.978;8.742;2022-08-25T05:24:25;22.70;99.90
4596;DHT22;2310;49.978;8.742;2022-08-25T05:28:27;22.70;99.90
4596;DHT22;2310;49.978;8.742;2022-08-25T05:32:28;22.70;99.90
4596;DHT22;2310;49.978;8.742;2022-08-25T05:36:30;22.60;99.90
4596;DHT22;2310;49.978;8.742;2022-08-25T05:40:31;22.40;99.90
4596;DHT22;2310;49.978;8.742;2022-08-25T05:44:32;22.30;99.90
4596;DHT22;2310;49.978;8.742;2022-08-25T05:48:34;22.10;99.90
4596;DHT22;2310;49.978;8.742;2022-08-25T05:52:36;21.80;99.90
4596;DHT22;2310;49.978;8.742;2022-08-25T05:56:37;21.50;99.90
4596;DHT22;2310;49.978;8.742;2022-08-25T06:00:40;21.60;99.90
4596;DHT22;2310;49.978;8.742;2022-08-25T06:04:41;21.50;99.90
4596;DHT22;2310;49.978;8.742;2022-08-25T06:08:43;21.80;99.90
4596;DHT22;2310;49.978;8.742;2022-08-25T06:12:45;22.10;99.90
4596;DHT22;2310;49.978;8.742;2022-08-25T06:16:47;22.10;99.90
4596;DHT22;2310;49.978;8.742;2022-08-25T06:20:50;22.00;99.90
4596;DHT22;2310;49.978;8.742;2022-08-25T06:24:51;21.90;99.90
4596;DHT22;2310;49.978;8.742;2022-08-25T06:28:53;22.10;99.90
4596;DHT22;2310;49.978;8.742;2022-08-25T06:32:54;22.20;99.90
4596;DHT22;2310;49.978;8.742;2022-08-25T06:36:55;22.30;99.90
4596;DHT22;2310;49.978;8.742;2022-08-25T06:40:56;22.50;99.90
4596;DHT22;2310;49.978;8.742;2022-08-25T06:44:58;22.50;99.90
4596;DHT22;2310;49.978;8.742;2022-08-25T06:48:59;22.50;99.90
4596;DHT22;2310;49.978;8.742;2022-08-25T06:53:00;22.70;99.90
4596;DHT22;2310;49.978;8.742;2022-08-25T06:57:03;23.10;99.90
4596;DHT22;2310;49.978;8.742;2022-08-25T07:01:17;23.60;99.90
4596;DHT22;2310;49.978;8.742;2022-08-25T07:05:25;23.80;99.90
4596;DHT22;2310;49.978;8.742;2022-08-25T07:09:29;23.90;99.90
4596;DHT22;2310;49.978;8.742;2022-08-25T07:13:30;24.20;99.90
4596;DHT22;2310;49.978;8.742;2022-08-25T07:17:32;24.20;99.90
4596;DHT22;2310;49.978;8.742;2022-08-25T07:21:36;24.20;99.90
4596;DHT22;2310;49.978;8.742;2022-08-25T07:25:37;24.70;99.90
4596;DHT22;2310;49.978;8.742;2022-08-25T07:29:38;24.50;99.90
4596;DHT22;2310;49.978;8.742;2022-08-25T07:33:42;24.60;99.90
4596;DHT22;2310;49.978;8.742;2022-08-25T07:37:48;24.70;99.90
4596;DHT22;2310;49.978;8.742;2022-08-25T07:41:51;24.80;99.90
4596;DHT22;2310;49.978;8.742;2022-08-25T07:45:53;25.20;99.90
4596;DHT22;2310;49.978;8.742;2022-08-25T07:49:54;25.40;99.90
4596;DHT22;2310;49.978;8.742;2022-08-25T07:53:56;25.60;99.90
4596;DHT22;2310;49.978;8.742;2022-08-25T07:57:57;25.80;99.90
4596;DHT22;2310;49.978;8.742;2022-08-25T08:01:59;25.50;99.90
4596;DHT22;2310;49.978;8.742;2022-08-25T08:06:07;25.80;99.90
4596;DHT22;2310;49.978;8.742;2022-08-25T08:10:11;26.00;99.90
4596;DHT22;2310;49.978;8.742;2022-08-25T08:14:14;26.00;99.90
4596;DHT22;2310;49.978;8.742;2022-08-25T08:18:18;26.50;99.90
4596;DHT22;2310;49.978;8.742;2022-08-25T08:22:19;26.80;99.90
4596;DHT22;2310;49.978;8.742;2022-08-25T08:26:22;26.50;99.90
4596;DHT22;2310;49.978;8.742;2022-08-25T08:30:25;26.60;99.90
4596;DHT22;2310;49.978;8.742;2022-08-25T08:34:28;26.90;99.90
4596;DHT22;2310;49.978;8.742;2022-08-25T08:38:30;27.20;99.90
4596;DHT22;2310;49.978;8.742;2022-08-25T08:42:38;27.30;99.90
4596;DHT22;2310;49.978;8.742;2022-08-25T08:46:48;27.60;99.90
4596;DHT22;2310;49.978;8.742;2022-08-25T08:55:01;28.60;95.90
4596;DHT22;2310;49.978;8.742;2022-08-25T08:59:27;28.90;91.60
4596;DHT22;2310;49.978;8.742;2022-08-25T09:03:22;29.00;88.70
4596;DHT22;2310;49.978;8.742;2022-08-25T09:07:25;29.50;91.40
4596;DHT22;2310;49.978;8.742;2022-08-25T09:15:51;29.80;80.80
4596;DHT22;2310;49.978;8.742;2022-08-25T09:20:48;30.10;77.90
4596;DHT22;2310;49.978;8.742;2022-08-25T09:29:17;30.30;75.10
4596;DHT22;2310;49.978;8.742;2022-08-25T09:33:20;30.70;77.30
4596;DHT22;2310;49.978;8.742;2022-08-25T09:37:22;30.50;72.90
4596;DHT22;2310;49.978;8.742;2022-08-25T09:46:00;31.60;69.60
4596;DHT22;2310;49.978;8.742;2022-08-25T09:50:03;31.10;69.50
4596;DHT22;2310;49.978;8.742;2022-08-25T09:58:23;30.80;72.40
4596;DHT22;2310;49.978;8.742;2022-08-25T10:02:26;31.10;68.40
4596;DHT22;2310;49.978;8.742;2022-08-25T10:06:43;30.90;72.80
4596;DHT22;2310;49.978;8.742;2022-08-25T10:10:51;31.00;70.80
4596;DHT22;2310;49.978;8.742;2022-08-25T10:14:51;31.80;67.10
4596;DHT22;2310;49.978;8.742;2022-08-25T10:19:09;32.20;64.90
4596;DHT22;2310;49.978;8.742;2022-08-25T10:23:13;32.40;64.00
4596;DHT22;2310;49.978;8.742;2022-08-25T10:27:29;32.40;62.10
4596;DHT22;2310;49.978;8.742;2022-08-25T10:31:35;31.60;65.90
4596;DHT22;2310;49.978;8.742;2022-08-25T10:40:07;32.60;61.80
4596;DHT22;2310;49.978;8.742;2022-08-25T10:49:18;33.50;58.10
4596;DHT22;2310;49.978;8.742;2022-08-25T10:53:25;32.70;59.40
4596;DHT22;2310;49.978;8.742;2022-08-25T10:57:41;32.20;58.30
4596;DHT22;2310;49.978;8.742;2022-08-25T11:05:58;32.60;62.40
4596;DHT22;2310;49.978;8.742;2022-08-25T11:09:58;33.60;57.60
4596;DHT22;2310;49.978;8.742;2022-08-25T11:14:04;34.10;56.20
4596;DHT22;2310;49.978;8.742;2022-08-25T11:18:12;33.60;54.40
4596;DHT22;2310;49.978;8.742;2022-08-25T11:22:34;32.90;56.20
4596;DHT22;2310;49.978;8.742;2022-08-25T11:26:36;33.40;55.30
4596;DHT22;2310;49.978;8.742;2022-08-25T11:30:41;33.80;54.80
4596;DHT22;2310;49.978;8.742;2022-08-25T11:34:44;33.30;53.40
4596;DHT22;2310;49.978;8.742;2022-08-25T11:47:47;33.50;50.50
4596;DHT22;2310;49.978;8.742;2022-08-25T11:51:47;33.30;50.20
4596;DHT22;2310;49.978;8.742;2022-08-25T11:55:52;34.10;49.50
4596;DHT22;2310;49.978;8.742;2022-08-25T12:00:12;34.30;50.10
4596;DHT22;2310;49.978;8.742;2022-08-25T12:08:51;33.70;51.00
4596;DHT22;2310;49.978;8.742;2022-08-25T12:13:04;34.30;51.10
4596;DHT22;2310;49.978;8.742;2022-08-25T12:17:22;35.20;48.80
4596;DHT22;2310;49.978;8.742;2022-08-25T12:21:30;35.40;48.60
4596;DHT22;2310;49.978;8.742;2022-08-25T12:25:34;35.40;46.20
4596;DHT22;2310;49.978;8.742;2022-08-25T12:29:43;35.10;46.30
4596;DHT22;2310;49.978;8.742;2022-08-25T12:34:08;34.90;47.40
4596;DHT22;2310;49.978;8.742;2022-08-25T12:38:11;35.30;47.20
4596;DHT22;2310;49.978;8.742;2022-08-25T12:46:37;34.50;46.80
4596;DHT22;2310;49.978;8.742;2022-08-25T12:50:42;35.10;47.00
4596;DHT22;2310;49.978;8.742;2022-08-25T12:59:38;34.70;44.30
4596;DHT22;2310;49.978;8.742;2022-08-25T13:03:37;34.30;43.80
4596;DHT22;2310;49.978;8.742;2022-08-25T13:07:55;34.30;44.30
4596;DHT22;2310;49.978;8.742;2022-08-25T13:12:17;34.20;45.30
4596;DHT22;2310;49.978;8.742;2022-08-25T13:16:26;34.50;45.30
4596;DHT22;2310;49.978;8.742;2022-08-25T13:20:29;34.70;44.80
4596;DHT22;2310;49.978;8.742;2022-08-25T13:24:35;34.40;45.30
4596;DHT22;2310;49.978;8.742;2022-08-25T13:28:42;34.30;45.80
4596;DHT22;2310;49.978;8.742;2022-08-25T13:32:46;34.30;45.30
4596;DHT22;2310;49.978;8.742;2022-08-25T13:36:48;34.70;45.40
4596;DHT22;2310;49.978;8.742;2022-08-25T13:41:09;34.70;44.80
4596;DHT22;2310;49.978;8.742;2022-08-25T13:45:14;34.60;45.80
4596;DHT22;2310;49.978;8.742;2022-08-25T13:49:25;34.70;45.20
4596;DHT22;2310;49.978;8.742;2022-08-25T13:53:27;34.40;45.70
4596;DHT22;2310;49.978;8.742;2022-08-25T13:57:31;33.70;46.70
4596;DHT22;2310;49.978;8.742;2022-08-25T14:01:43;33.50;47.10
4596;DHT22;2310;49.978;8.742;2022-08-25T14:05:50;33.50;47.00
4596;DHT22;2310;49.978;8.742;2022-08-25T14:09:59;33.70;46.50
4596;DHT22;2310;49.978;8.742;2022-08-25T14:14:11;33.80;45.60
4596;DHT22;2310;49.978;8.742;2022-08-25T14:18:18;33.50;46.80
4596;DHT22;2310;49.978;8.742;2022-08-25T14:22:23;34.10;45.80
4596;DHT22;2310;49.978;8.742;2022-08-25T14:26:25;34.50;45.40
4596;DHT22;2310;49.978;8.742;2022-08-25T14:30:29;34.40;44.40
4596;DHT22;2310;49.978;8.742;2022-08-25T14:34:35;34.40;43.70
4596;DHT22;2310;49.978;8.742;2022-08-25T14:38:37;34.20;44.70
4596;DHT22;2310;49.978;8.742;2022-08-25T14:42:39;34.50;46.50
4596;DHT22;2310;49.978;8.742;2022-08-25T14:46:49;34.40;46.10
4596;DHT22;2310;49.978;8.742;2022-08-25T14:50:52;34.50;44.90
4596;DHT22;2310;49.978;8.742;2022-08-25T14:54:55;33.60;46.50
4596;DHT22;2310;49.978;8.742;2022-08-25T14:59:00;33.30;47.00
4596;DHT22;2310;49.978;8.742;2022-08-25T15:03:01;33.70;46.10
4596;DHT22;2310;49.978;8.742;2022-08-25T15:07:04;33.70;46.10
4596;DHT22;2310;49.978;8.742;2022-08-25T15:11:07;33.60;46.20
4596;DHT22;2310;49.978;8.742;2022-08-25T15:15:09;33.80;46.80
4596;DHT22;2310;49.978;8.742;2022-08-25T15:19:15;33.70;46.30
4596;DHT22;2310;49.978;8.742;2022-08-25T15:23:18;33.50;45.90
4596;DHT22;2310;49.978;8.742;2022-08-25T15:27:19;33.30;46.20
4596;DHT22;2310;49.978;8.742;2022-08-25T15:31:21;33.30;46.20
4596;DHT22;2310;49.978;8.742;2022-08-25T15:35:23;32.90;47.30
4596;DHT22;2310;49.978;8.742;2022-08-25T15:39:26;32.90;47.40
4596;DHT22;2310;49.978;8.742;2022-08-25T15:43:28;32.70;47.00
4596;DHT22;2310;49.978;8.742;2022-08-25T15:47:30;32.70;46.70
4596;DHT22;2310;49.978;8.742;2022-08-25T15:51:32;32.80;47.90
4596;DHT22;2310;49.978;8.742;2022-08-25T15:55:36;32.70;47.00
4596;DHT22;2310;49.978;8.742;2022-08-25T15:59:38;32.80;46.80
4596;DHT22;2310;49.978;8.742;2022-08-25T16:03:42;32.70;46.70
4596;DHT22;2310;49.978;8.742;2022-08-25T16:07:43;32.80;46.60
4596;DHT22;2310;49.978;8.742;2022-08-25T16:11:46;32.80;47.20
4596;DHT22;2310;49.978;8.742;2022-08-25T16:15:49;32.40;48.10
4596;DHT22;2310;49.978;8.742;2022-08-25T16:19:52;32.30;47.00
4596;DHT22;2310;49.978;8.742;2022-08-25T16:23:56;31.90;46.60
4596;DHT22;2310;49.978;8.742;2022-08-25T16:27:59;31.90;46.70
4596;DHT22;2310;49.978;8.742;2022-08-25T16:32:03;32.00;46.40
4596;DHT22;2310;49.978;8.742;2022-08-25T16:36:07;32.00;46.40
4596;DHT22;2310;49.978;8.742;2022-08-25T16:40:10;32.00;46.40
4596;DHT22;2310;49.978;8.742;2022-08-25T16:44:15;31.70;47.20
4596;DHT22;2310;49.978;8.742;2022-08-25T16:48:17;31.80;46.80
4596;DHT22;2310;49.978;8.742;2022-08-25T16:52:18;32.10;46.60
4596;DHT22;2310;49.978;8.742;2022-08-25T16:56:38;31.90;46.80
4596;DHT22;2310;49.978;8.742;2022-08-25T17:00:41;31.90;47.50
4596;DHT22;2310;49.978;8.742;2022-08-25T17:04:44;32.00;47.60
4596;DHT22;2310;49.978;8.742;2022-08-25T17:08:46;31.80;47.20
4596;DHT22;2310;49.978;8.742;2022-08-25T17:12:49;31.60;47.30
4596;DHT22;2310;49.978;8.742;2022-08-25T17:16:51;31.60;48.20
4596;DHT22;2310;49.978;8.742;2022-08-25T17:21:06;31.70;47.60
4596;DHT22;2310;49.978;8.742;2022-08-25T17:25:08;31.80;47.60
4596;DHT22;2310;49.978;8.742;2022-08-25T17:29:09;31.70;47.90
4596;DHT22;2310;49.978;8.742;2022-08-25T17:33:11;31.70;48.50
4596;DHT22;2310;49.978;8.742;2022-08-25T17:37:14;31.90;48.30
4596;DHT22;2310;49.978;8.742;2022-08-25T17:41:15;31.70;48.80
4596;DHT22;2310;49.978;8.742;2022-08-25T17:45:18;31.80;49.20
4596;DHT22;2310;49.978;8.742;2022-08-25T17:49:19;31.80;49.30
4596;DHT22;2310;49.978;8.742;2022-08-25T17:53:20;31.80;49.10
4596;DHT22;2310;49.978;8.742;2022-08-25T17:57:23;31.70;49.70
4596;DHT22;2310;49.978;8.742;2022-08-25T18:01:28;31.50;49.20
4596;DHT22;2310;49.978;8.742;2022-08-25T18:05:30;31.40;49.60
4596;DHT22;2310;49.978;8.742;2022-08-25T18:09:33;31.30;50.00
4596;DHT22;2310;49.978;8.742;2022-08-25T18:13:35;31.20;49.90
4596;DHT22;2310;49.978;8.742;2022-08-25T18:17:37;31.10;50.60
4596;DHT22;2310;49.978;8.742;2022-08-25T18:21:40;30.90;51.40
4596;DHT22;2310;49.978;8.742;2022-08-25T18:25:43;30.80;51.20
4596;DHT22;2310;49.978;8.742;2022-08-25T18:29:45;30.70;52.30
4596;DHT22;2310;49.978;8.742;2022-08-25T18:33:46;30.30;53.90
4596;DHT22;2310;49.978;8.742;2022-08-25T18:37:50;30.20;54.60
4596;DHT22;2310;49.978;8.742;2022-08-25T18:42:11;30.10;55.00
4596;DHT22;2310;49.978;8.742;2022-08-25T18:46:12;30.10;55.60
4596;DHT22;2310;49.978;8.742;2022-08-25T18:50:13;30.10;55.30
4596;DHT22;2310;49.978;8.742;2022-08-25T18:54:16;30.00;54.80
4596;DHT22;2310;49.978;8.742;2022-08-25T18:58:21;30.00;56.00
4596;DHT22;2310;49.978;8.742;2022-08-25T19:02:24;29.90;55.20
4596;DHT22;2310;49.978;8.742;2022-08-25T19:06:26;29.80;55.20
4596;DHT22;2310;49.978;8.742;2022-08-25T19:10:27;29.60;55.50
4596;DHT22;2310;49.978;8.742;2022-08-25T19:14:30;29.40;56.30
4596;DHT22;2310;49.978;8.742;2022-08-25T19:18:31;29.30;57.20
4596;DHT22;2310;49.978;8.742;2022-08-25T19:22:34;29.30;57.10
4596;DHT22;2310;49.978;8.742;2022-08-25T19:26:38;29.20;57.20
4596;DHT22;2310;49.978;8.742;2022-08-25T19:30:39;29.20;57.70
4596;DHT22;2310;49.978;8.742;2022-08-25T19:34:44;29.10;57.90
4596;DHT22;2310;49.978;8.742;2022-08-25T19:38:50;29.20;58.80
4596;DHT22;2310;49.978;8.742;2022-08-25T19:42:52;29.10;59.10
4596;DHT22;2310;49.978;8.742;2022-08-25T19:46:55;29.00;59.20
4596;DHT22;2310;49.978;8.742;2022-08-25T19:50:56;29.00;58.90
4596;DHT22;2310;49.978;8.742;2022-08-25T19:54:57;28.90;59.00
4596;DHT22;2310;49.978;8.742;2022-08-25T19:59:00;28.80;59.10
4596;DHT22;2310;49.978;8.742;2022-08-25T20:03:02;28.70;60.00
4596;DHT22;2310;49.978;8.742;2022-08-25T20:07:04;28.60;60.30
4596;DHT22;2310;49.978;8.742;2022-08-25T20:11:05;28.20;60.80
4596;DHT22;2310;49.978;8.742;2022-08-25T20:15:08;28.10;62.60
4596;DHT22;2310;49.978;8.742;2022-08-25T20:19:10;27.90;63.00
4596;DHT22;2310;49.978;8.742;2022-08-25T20:23:11;27.80;64.90
4596;DHT22;2310;49.978;8.742;2022-08-25T20:27:34;27.70;65.00
4596;DHT22;2310;49.978;8.742;2022-08-25T20:31:37;27.50;65.90
4596;DHT22;2310;49.978;8.742;2022-08-25T20:35:39;27.40;66.30
4596;DHT22;2310;49.978;8.742;2022-08-25T20:39:41;27.30;68.00
4596;DHT22;2310;49.978;8.742;2022-08-25T20:43:42;27.10;70.30
4596;DHT22;2310;49.978;8.742;2022-08-25T20:47:44;27.00;71.50
4596;DHT22;2310;49.978;8.742;2022-08-25T20:51:46;27.10;75.40
4596;DHT22;2310;49.978;8.742;2022-08-25T20:55:49;27.20;75.10
4596;DHT22;2310;49.978;8.742;2022-08-25T20:59:52;27.20;76.00
4596;DHT22;2310;49.978;8.742;2022-08-25T21:03:53;27.20;76.90
4596;DHT22;2310;49.978;8.742;2022-08-25T21:07:55;27.00;75.40
4596;DHT22;2310;49.978;8.742;2022-08-25T21:11:57;27.00;79.20
4596;DHT22;2310;49.978;8.742;2022-08-25T21:16:02;26.90;81.10
4596;DHT22;2310;49.978;8.742;2022-08-25T21:20:07;26.90;84.40
4596;DHT22;2310;49.978;8.742;2022-08-25T21:24:09;26.80;85.40
4596;DHT22;2310;49.978;8.742;2022-08-25T21:28:11;26.90;83.80
4596;DHT22;2310;49.978;8.742;2022-08-25T21:32:15;26.90;85.90
4596;DHT22;2310;49.978;8.742;2022-08-25T21:36:16;26.80;85.50
4596;DHT22;2310;49.978;8.742;2022-08-25T21:40:21;26.70;88.60
4596;DHT22;2310;49.978;8.742;2022-08-25T21:44:23;26.70;89.30
4596;DHT22;2310;49.978;8.742;2022-08-25T21:48:26;26.50;90.30
4596;DHT22;2310;49.978;8.742;2022-08-25T21:52:27;26.50;90.80
4596;DHT22;2310;49.978;8.742;2022-08-25T21:56:30;26.40;91.80
4596;DHT22;2310;49.978;8.742;2022-08-25T22:00:33;26.40;92.70
4596;DHT22;2310;49.978;8.742;2022-08-25T22:04:36;26.50;94.20
4596;DHT22;2310;49.978;8.742;2022-08-25T22:08:40;26.50;93.10
4596;DHT22;2310;49.978;8.742;2022-08-25T22:12:44;26.10;93.80
4596;DHT22;2310;49.978;8.742;2022-08-25T22:16:45;26.30;93.70
4596;DHT22;2310;49.978;8.742;2022-08-25T22:20:47;26.30;93.80
4596;DHT22;2310;49.978;8.742;2022-08-25T22:24:50;26.30;92.40
4596;DHT22;2310;49.978;8.742;2022-08-25T22:28:52;26.20;92.50
4596;DHT22;2310;49.978;8.742;2022-08-25T22:32:54;26.00;93.80
4596;DHT22;2310;49.978;8.742;2022-08-25T22:36:55;25.80;96.50
4596;DHT22;2310;49.978;8.742;2022-08-25T22:41:01;25.90;97.50
4596;DHT22;2310;49.978;8.742;2022-08-25T22:45:05;25.90;97.70
4596;DHT22;2310;49.978;8.742;2022-08-25T22:49:07;26.10;97.20
4596;DHT22;2310;49.978;8.742;2022-08-25T22:53:09;25.90;99.00
4596;DHT22;2310;49.978;8.742;2022-08-25T22:57:10;26.00;97.40
4596;DHT22;2310;49.978;8.742;2022-08-25T23:01:14;25.80;97.50
4596;DHT22;2310;49.978;8.742;2022-08-25T23:05:17;25.60;98.80
4596;DHT22;2310;49.978;8.742;2022-08-25T23:09:19;25.50;99.70
4596;DHT22;2310;49.978;8.742;2022-08-25T23:13:22;25.40;99.20
4596;DHT22;2310;49.978;8.742;2022-08-25T23:17:27;25.30;99.90
4596;DHT22;2310;49.978;8.742;2022-08-25T23:21:29;25.30;99.90
4596;DHT22;2310;49.978;8.742;2022-08-25T23:25:50;25.30;99.90
4596;DHT22;2310;49.978;8.742;2022-08-25T23:29:51;25.20;99.90
4596;DHT22;2310;49.978;8.742;2022-08-25T23:33:53;25.20;99.90
4596;DHT22;2310;49.978;8.742;2022-08-25T23:37:55;25.20;99.90
4596;DHT22;2310;49.978;8.742;2022-08-25T23:41:57;25.20;99.90
4596;DHT22;2310;49.978;8.742;2022-08-25T23:46:01;25.20;99.90
4596;DHT22;2310;49.978;8.742;2022-08-25T23:50:03;25.20;99.90
4596;DHT22;2310;49.978;8.742;2022-08-25T23:54:07;25.20;99.90
4596;DHT22;2310;49.978;8.742;2022-08-25T23:58:11;25.20;99.90
